Time;durP1;ratioP1;P1;durP2;ratioP2;P2;SDS_P1;SDS_P2;PMS_P1;PMS_P2;Temp;Humidity;BMP_temperature;BMP_pressure;BME280_temperature;BME280_humidity;BME280_pressure;Samples;Min_cycle;Max_cycle;Signal;HPM_P1;HPM_P2
2023/10/03 00:02:08;;;;;;;;;9.00;8.40;;;;;;;;5068618;28;8779;-84
2023/10/03 00:04:35;;;;;;;;;9.40;6.00;;;;;;;;5068982;28;8850;-75
2023/10/03 00:07:03;;;;;;;;;7.80;7.80;;;;;;;;5070058;28;8981;-78
2023/10/03 00:09:32;;;;;;;;;8.00;8.00;;;;;;;;5069277;28;8901;-79
2023/10/03 00:11:59;;;;;;;;;9.80;9.80;;;;;;;;5069807;28;8890;-76
2023/10/03 00:14:27;;;;;;;;;8.00;7.00;;;;;;;;5068978;28;8867;-79
2023/10/03 00:16:54;;;;;;;;;9.00;9.00;;;;;;;;5068476;28;9675;-82
2023/10/03 00:19:22;;;;;;;;;9.00;7.80;;;;;;;;5069477;28;9677;-81
2023/10/03 00:21:49;;;;;;;;;9.20;7.80;;;;;;;;5069965;28;8846;-81
2023/10/03 00:24:19;;;;;;;;;12.60;9.40;;;;;;;;5071590;28;8862;-83
2023/10/03 00:26:47;;;;;;;;;9.60;8.20;;;;;;;;5072473;28;8877;-78
2023/10/03 00:29:23;;;;;;;;;8.60;8.60;;;;;;;;5072424;28;8955;-79
2023/10/03 00:31:52;;;;;;;;;8.80;8.80;;;;;;;;5071912;28;8804;-80
2023/10/03 00:34:22;;;;;;;;;8.00;8.00;;;;;;;;5073867;28;9005;-76
2023/10/03 00:36:52;;;;;;;;;10.00;10.00;;;;;;;;5072963;28;8867;-78
2023/10/03 00:39:20;;;;;;;;;5.60;5.60;;;;;;;;5070161;28;8854;-82
2023/10/03 00:41:48;;;;;;;;;8.00;8.00;;;;;;;;5068098;28;8927;-81
2023/10/03 00:44:20;;;;;;;;;8.20;8.20;;;;;;;;5062956;28;8938;-84
2023/10/03 00:46:47;;;;;;;;;10.40;8.80;;;;;;;;5066839;28;8843;-82
2023/10/03 00:49:16;;;;;;;;;10.40;9.00;;;;;;;;5068292;28;8867;-80
2023/10/03 00:51:45;;;;;;;;;10.20;10.20;;;;;;;;5068404;28;8880;-84
2023/10/03 00:54:12;;;;;;;;;7.00;7.00;;;;;;;;5063084;28;8862;-82
2023/10/03 00:56:43;;;;;;;;;7.00;7.00;;;;;;;;5067853;28;8863;-81
2023/10/03 00:59:13;;;;;;;;;10.60;9.00;;;;;;;;5064045;28;8855;-79
2023/10/03 01:01:41;;;;;;;;;8.20;7.80;;;;;;;;5067715;28;8811;-79
2023/10/03 01:04:19;;;;;;;;;7.80;7.80;;;;;;;;5069013;28;8862;-80
2023/10/03 01:06:47;;;;;;;;;8.80;8.80;;;;;;;;5069831;28;8942;-78
2023/10/03 01:09:22;;;;;;;;;4.80;4.80;;;;;;;;5069211;28;8835;-79
2023/10/03 01:11:52;;;;;;;;;10.20;9.00;;;;;;;;5068936;28;8839;-76
2023/10/03 01:14:21;;;;;;;;;8.40;8.00;;;;;;;;5067761;28;8925;-79
2023/10/03 01:16:49;;;;;;;;;7.20;7.00;;;;;;;;5068699;28;8843;-78
2023/10/03 01:19:20;;;;;;;;;10.80;8.20;;;;;;;;5067527;28;8847;-79
2023/10/03 01:21:49;;;;;;;;;7.60;7.60;;;;;;;;5068380;28;9630;-76
2023/10/03 01:24:23;;;;;;;;;8.40;8.40;;;;;;;;5055511;28;8843;-81
2023/10/03 01:26:53;;;;;;;;;9.00;7.80;;;;;;;;5068412;28;8851;-83
2023/10/03 01:29:20;;;;;;;;;7.20;7.20;;;;;;;;5068451;28;8878;-81
2023/10/03 01:31:49;;;;;;;;;9.40;8.40;;;;;;;;5067359;28;8779;-81
2023/10/03 01:34:16;;;;;;;;;10.60;8.60;;;;;;;;5068191;28;8846;-79
2023/10/03 01:36:48;;;;;;;;;9.00;9.00;;;;;;;;5067744;28;9273;-78
2023/10/03 01:39:15;;;;;;;;;9.00;7.40;;;;;;;;5068373;28;8855;-83
2023/10/03 01:41:44;;;;;;;;;9.80;8.00;;;;;;;;5068080;28;8867;-81
2023/10/03 01:44:11;;;;;;;;;8.20;8.20;;;;;;;;5068429;28;8862;-83
2023/10/03 01:46:39;;;;;;;;;9.80;8.00;;;;;;;;5067809;28;8843;-83
2023/10/03 01:49:09;;;;;;;;;12.00;8.60;;;;;;;;5068691;28;8857;-75
2023/10/03 01:51:36;;;;;;;;;6.80;6.80;;;;;;;;5067882;28;8843;-77
2023/10/03 01:54:05;;;;;;;;;9.80;9.80;;;;;;;;5068394;28;8843;-77
2023/10/03 01:56:34;;;;;;;;;10.20;9.80;;;;;;;;5067519;28;8989;-79
2023/10/03 01:59:03;;;;;;;;;11.00;10.40;;;;;;;;5068587;28;8842;-81
2023/10/03 02:01:30;;;;;;;;;12.20;11.60;;;;;;;;5067941;28;8807;-78
2023/10/03 02:03:59;;;;;;;;;13.80;11.60;;;;;;;;5071539;28;8850;-82
2023/10/03 02:06:26;;;;;;;;;12.20;12.20;;;;;;;;5074380;28;8867;-76
2023/10/03 02:08:54;;;;;;;;;10.80;10.00;;;;;;;;5074965;28;9009;-82
2023/10/03 02:11:26;;;;;;;;;10.60;10.60;;;;;;;;5075790;28;8971;-79
2023/10/03 02:13:54;;;;;;;;;11.80;10.00;;;;;;;;5074126;28;8854;-80
2023/10/03 02:16:23;;;;;;;;;13.00;12.00;;;;;;;;5076284;28;8827;-77
2023/10/03 02:18:52;;;;;;;;;14.00;14.00;;;;;;;;5076108;28;8953;-83
2023/10/03 02:21:19;;;;;;;;;12.20;11.00;;;;;;;;5077208;28;8993;-87
2023/10/03 02:23:50;;;;;;;;;15.60;14.60;;;;;;;;5077374;28;8878;-82
2023/10/03 02:26:17;;;;;;;;;12.00;12.00;;;;;;;;5070619;28;8855;-84
2023/10/03 02:28:44;;;;;;;;;11.20;11.20;;;;;;;;5071278;28;8859;-82
2023/10/03 02:31:12;;;;;;;;;10.40;10.40;;;;;;;;5070980;28;8787;-84
2023/10/03 02:33:43;;;;;;;;;14.20;14.20;;;;;;;;5071209;28;8847;-85
2023/10/03 02:36:10;;;;;;;;;12.00;12.00;;;;;;;;5072179;28;8886;-83
2023/10/03 02:38:37;;;;;;;;;13.80;13.80;;;;;;;;5070840;28;8855;-82
2023/10/03 02:41:06;;;;;;;;;14.20;14.20;;;;;;;;5063736;28;8966;-81
2023/10/03 02:43:35;;;;;;;;;10.80;10.60;;;;;;;;5071798;28;8972;-79
2023/10/03 02:46:05;;;;;;;;;14.40;14.40;;;;;;;;5072662;28;8847;-80
2023/10/03 02:48:33;;;;;;;;;12.60;12.60;;;;;;;;5073124;28;9610;-85
2023/10/03 02:51:06;;;;;;;;;11.60;11.60;;;;;;;;5073645;28;8949;-83
2023/10/03 02:53:35;;;;;;;;;11.40;9.80;;;;;;;;5072398;28;8846;-79
2023/10/03 02:56:03;;;;;;;;;11.00;11.00;;;;;;;;5071676;28;8862;-80
2023/10/03 02:58:31;;;;;;;;;11.80;11.80;;;;;;;;5070216;28;8994;-81
2023/10/03 03:00:58;;;;;;;;;12.60;12.00;;;;;;;;5070247;28;8925;-77
2023/10/03 03:03:29;;;;;;;;;14.80;13.60;;;;;;;;5070417;28;8850;-77
2023/10/03 03:05:57;;;;;;;;;11.40;11.40;;;;;;;;5070587;28;8928;-76
2023/10/03 03:08:28;;;;;;;;;13.60;13.60;;;;;;;;5070827;28;8876;-78
2023/10/03 03:10:57;;;;;;;;;12.60;12.40;;;;;;;;5070411;28;8871;-81
2023/10/03 03:13:26;;;;;;;;;10.80;9.80;;;;;;;;5069959;28;8893;-76
2023/10/03 03:15:59;;;;;;;;;11.80;11.80;;;;;;;;5068378;28;8846;-76
2023/10/03 03:18:30;;;;;;;;;11.80;11.80;;;;;;;;5069502;28;8977;-76
2023/10/03 03:20:58;;;;;;;;;12.40;10.40;;;;;;;;5070490;28;8980;-76
2023/10/03 03:23:36;;;;;;;;;13.80;12.00;;;;;;;;5070421;28;8866;-84
2023/10/03 03:26:14;;;;;;;;;11.60;11.60;;;;;;;;5070882;28;8850;-82
2023/10/03 03:28:43;;;;;;;;;14.20;12.40;;;;;;;;5063274;28;8865;-80
2023/10/03 03:31:20;;;;;;;;;13.60;12.80;;;;;;;;5070107;28;8854;-83
2023/10/03 03:33:48;;;;;;;;;13.00;11.40;;;;;;;;5070189;28;8835;-85
2023/10/03 03:36:19;;;;;;;;;11.00;11.00;;;;;;;;5064475;28;8874;-79
2023/10/03 03:38:49;;;;;;;;;10.40;10.40;;;;;;;;5070006;28;8850;-80
2023/10/03 03:41:20;;;;;;;;;14.20;12.80;;;;;;;;5070261;28;8904;-80
2023/10/03 03:43:49;;;;;;;;;12.00;12.00;;;;;;;;5070629;28;8858;-82
2023/10/03 03:46:19;;;;;;;;;14.80;13.20;;;;;;;;5069680;28;8847;-80
2023/10/03 03:48:46;;;;;;;;;14.80;14.20;;;;;;;;5069730;28;8839;-81
2023/10/03 03:51:16;;;;;;;;;10.60;10.60;;;;;;;;5071087;28;8882;-78
2023/10/03 03:53:44;;;;;;;;;13.80;12.00;;;;;;;;5072662;28;8882;-76
2023/10/03 03:56:13;;;;;;;;;14.20;10.60;;;;;;;;5071727;28;8839;-78
2023/10/03 03:58:44;;;;;;;;;13.00;11.40;;;;;;;;5072621;28;8838;-78
2023/10/03 04:01:14;;;;;;;;;11.60;11.60;;;;;;;;5072505;28;8791;-81
2023/10/03 04:03:42;;;;;;;;;9.00;9.00;;;;;;;;5072131;28;8871;-82
2023/10/03 04:06:09;;;;;;;;;13.20;13.20;;;;;;;;5071811;28;8855;-83
2023/10/03 04:08:40;;;;;;;;;16.00;12.80;;;;;;;;5075237;28;8863;-80
2023/10/03 04:11:08;;;;;;;;;14.20;14.20;;;;;;;;5068500;28;8870;-77
2023/10/03 04:13:38;;;;;;;;;15.80;12.60;;;;;;;;5068834;28;8878;-80
2023/10/03 04:16:06;;;;;;;;;15.60;14.40;;;;;;;;5068651;28;9005;-82
2023/10/03 04:18:37;;;;;;;;;13.40;13.40;;;;;;;;5067952;28;8862;-81
2023/10/03 04:21:05;;;;;;;;;9.60;9.60;;;;;;;;5057830;28;8871;-80
2023/10/03 04:23:32;;;;;;;;;11.60;11.60;;;;;;;;5067672;28;8847;-77
2023/10/03 04:26:00;;;;;;;;;16.00;13.00;;;;;;;;5067911;28;8851;-81
2023/10/03 04:28:32;;;;;;;;;11.60;11.00;;;;;;;;5071106;28;8859;-82
2023/10/03 04:31:02;;;;;;;;;13.60;13.60;;;;;;;;5074082;28;8798;-82
2023/10/03 04:33:29;;;;;;;;;14.00;14.00;;;;;;;;5071282;28;8977;-82
2023/10/03 04:36:03;;;;;;;;;15.00;15.00;;;;;;;;5069000;28;8993;-81
2023/10/03 04:38:31;;;;;;;;;13.80;13.20;;;;;;;;5068239;28;8842;-82
2023/10/03 04:40:58;;;;;;;;;16.20;16.20;;;;;;;;5068364;28;8924;-81
2023/10/03 04:43:29;;;;;;;;;16.20;14.40;;;;;;;;5067630;28;8840;-82
2023/10/03 04:45:56;;;;;;;;;14.20;12.80;;;;;;;;5067587;28;8874;-80
2023/10/03 04:48:25;;;;;;;;;15.20;15.20;;;;;;;;5066555;28;8846;-78
2023/10/03 04:50:52;;;;;;;;;13.80;13.80;;;;;;;;5067427;28;8866;-79
2023/10/03 04:53:19;;;;;;;;;12.00;11.80;;;;;;;;5067559;28;9011;-77
2023/10/03 04:55:50;;;;;;;;;12.20;12.20;;;;;;;;5067705;28;8973;-79
2023/10/03 04:58:18;;;;;;;;;12.20;12.20;;;;;;;;5067812;28;8823;-78
2023/10/03 05:00:48;;;;;;;;;11.80;11.80;;;;;;;;5067711;28;8856;-78
2023/10/03 05:03:19;;;;;;;;;14.60;13.00;;;;;;;;5067980;28;9005;-78
2023/10/03 05:05:52;;;;;;;;;11.40;10.20;;;;;;;;5067236;28;8847;-77
2023/10/03 05:08:19;;;;;;;;;11.60;11.60;;;;;;;;5067697;28;8851;-77
2023/10/03 05:10:49;;;;;;;;;13.00;12.80;;;;;;;;5067056;28;8846;-83
2023/10/03 05:13:16;;;;;;;;;10.60;10.60;;;;;;;;5068093;28;8843;-80
2023/10/03 05:15:44;;;;;;;;;9.00;9.00;;;;;;;;5065663;28;8854;-76
2023/10/03 05:18:13;;;;;;;;;12.20;12.20;;;;;;;;5067371;28;8846;-73
2023/10/03 05:20:46;;;;;;;;;13.00;12.80;;;;;;;;5066972;28;8939;-74
2023/10/03 05:23:17;;;;;;;;;11.80;11.80;;;;;;;;5067564;28;9634;-75
2023/10/03 05:25:52;;;;;;;;;10.60;10.60;;;;;;;;5067269;28;8838;-74
2023/10/03 05:28:20;;;;;;;;;11.60;11.60;;;;;;;;5068393;28;9744;-74
2023/10/03 05:30:47;;;;;;;;;11.80;11.20;;;;;;;;5057319;28;8829;-77
2023/10/03 05:33:20;;;;;;;;;12.00;12.00;;;;;;;;5070094;28;8877;-74
2023/10/03 05:35:52;;;;;;;;;10.80;10.80;;;;;;;;5070592;28;8862;-76
2023/10/03 05:38:30;;;;;;;;;11.00;10.60;;;;;;;;5070250;28;8858;-78
2023/10/03 05:41:31;;;;;;;;;12.80;12.80;;;;;;;;5070134;28;8985;-81
2023/10/03 05:49:36;;;;;;;;;14.00;14.00;;;;;;;;5068144;28;8967;-80
2023/10/03 05:52:03;;;;;;;;;10.00;10.00;;;;;;;;5071074;28;8945;-78
2023/10/03 05:54:32;;;;;;;;;7.60;7.60;;;;;;;;5070572;28;8877;-80
2023/10/03 05:56:59;;;;;;;;;9.60;9.60;;;;;;;;5071216;28;8866;-80
2023/10/03 05:59:28;;;;;;;;;10.80;9.80;;;;;;;;5070595;28;8977;-78
2023/10/03 06:01:57;;;;;;;;;10.20;9.20;;;;;;;;5070090;28;8902;-75
2023/10/03 06:04:24;;;;;;;;;13.20;10.20;;;;;;;;5070288;28;8851;-76
2023/10/03 06:06:52;;;;;;;;;12.00;11.40;;;;;;;;5070584;28;8863;-73
2023/10/03 06:09:20;;;;;;;;;7.80;7.20;;;;;;;;5070557;28;8859;-73
2023/10/03 06:11:49;;;;;;;;;10.00;10.00;;;;;;;;5071579;28;8863;-73
2023/10/03 06:14:19;;;;;;;;;10.20;10.20;;;;;;;;5070879;28;8875;-75
2023/10/03 06:16:46;;;;;;;;;8.60;8.60;;;;;;;;5071067;28;8878;-71
2023/10/03 06:19:13;;;;;;;;;12.20;9.00;;;;;;;;5070115;28;8854;-75
2023/10/03 06:21:41;;;;;;;;;8.60;8.60;;;;;;;;5069910;28;8874;-76
2023/10/03 06:24:08;;;;;;;;;9.00;9.00;;;;;;;;5069589;28;8854;-76
2023/10/03 06:26:36;;;;;;;;;4.20;4.20;;;;;;;;5070554;28;8974;-72
2023/10/03 06:29:05;;;;;;;;;8.40;8.40;;;;;;;;5070291;28;9325;-72
2023/10/03 06:31:32;;;;;;;;;8.60;8.60;;;;;;;;5068970;28;8880;-70
2023/10/03 06:34:00;;;;;;;;;8.20;8.20;;;;;;;;5069411;28;9006;-75
2023/10/03 06:36:28;;;;;;;;;7.00;7.00;;;;;;;;5069527;28;8957;-74
2023/10/03 06:38:57;;;;;;;;;8.00;8.00;;;;;;;;5070688;28;8839;-77
2023/10/03 06:41:26;;;;;;;;;11.00;8.40;;;;;;;;5071048;28;8993;-75
2023/10/03 06:43:53;;;;;;;;;12.40;8.00;;;;;;;;5071573;28;8866;-79
2023/10/03 06:46:21;;;;;;;;;8.80;8.80;;;;;;;;5069501;28;8862;-75
2023/10/03 06:48:52;;;;;;;;;8.00;8.00;;;;;;;;5068172;28;8850;-72
2023/10/03 06:51:19;;;;;;;;;6.40;6.40;;;;;;;;5070790;28;8850;-73
2023/10/03 06:53:47;;;;;;;;;8.40;8.40;;;;;;;;5069721;28;8871;-73
2023/10/03 06:56:16;;;;;;;;;7.80;7.80;;;;;;;;5069533;28;8831;-74
2023/10/03 06:58:44;;;;;;;;;8.20;8.20;;;;;;;;5069955;28;8980;-73
2023/10/03 07:01:11;;;;;;;;;6.00;6.00;;;;;;;;5069190;28;8803;-75
2023/10/03 07:03:40;;;;;;;;;8.20;8.20;;;;;;;;5070459;28;9763;-71
2023/10/03 07:06:08;;;;;;;;;9.60;8.20;;;;;;;;5071013;28;8989;-77
2023/10/03 07:08:35;;;;;;;;;8.40;7.40;;;;;;;;5072953;28;8854;-76
2023/10/03 07:11:09;;;;;;;;;8.40;8.20;;;;;;;;5073020;28;8843;-72
2023/10/03 07:13:37;;;;;;;;;9.40;9.00;;;;;;;;5072184;28;8855;-75
2023/10/03 07:16:04;;;;;;;;;7.60;7.60;;;;;;;;5072210;28;8901;-73
2023/10/03 07:18:35;;;;;;;;;8.40;7.40;;;;;;;;5073409;28;8846;-79
2023/10/03 07:21:04;;;;;;;;;6.20;6.20;;;;;;;;5074258;28;8863;-82
2023/10/03 07:23:31;;;;;;;;;9.00;8.00;;;;;;;;5069746;28;9667;-82
2023/10/03 07:25:58;;;;;;;;;8.00;8.00;;;;;;;;5070425;28;9572;-81
2023/10/03 07:28:26;;;;;;;;;7.60;7.60;;;;;;;;5070095;28;9578;-78
2023/10/03 07:30:53;;;;;;;;;9.20;9.20;;;;;;;;5070253;28;8779;-80
2023/10/03 07:33:22;;;;;;;;;7.20;7.20;;;;;;;;5069847;28;8867;-82
2023/10/03 07:35:49;;;;;;;;;7.40;7.40;;;;;;;;5069451;28;8839;-84
2023/10/03 07:38:18;;;;;;;;;6.80;6.80;;;;;;;;5069251;28;8827;-77
2023/10/03 07:40:46;;;;;;;;;10.20;7.60;;;;;;;;5069022;28;8996;-87
2023/10/03 07:43:13;;;;;;;;;8.00;8.00;;;;;;;;5069489;28;8851;-84
2023/10/03 07:45:40;;;;;;;;;7.20;6.00;;;;;;;;5069663;28;8846;-83
2023/10/03 07:48:09;;;;;;;;;9.20;8.60;;;;;;;;5069157;28;9437;-77
2023/10/03 07:50:38;;;;;;;;;9.00;9.00;;;;;;;;5075434;28;8981;-75
2023/10/03 07:53:11;;;;;;;;;12.20;10.00;;;;;;;;5073443;28;8854;-83
2023/10/03 07:55:41;;;;;;;;;8.60;8.60;;;;;;;;5071293;28;8850;-79
2023/10/03 07:58:08;;;;;;;;;6.40;6.40;;;;;;;;5068043;28;8835;-74
2023/10/03 08:00:37;;;;;;;;;4.40;4.40;;;;;;;;5068441;28;8790;-78
2023/10/03 08:03:08;;;;;;;;;2.20;2.20;;;;;;;;5067686;28;8847;-82
2023/10/03 08:05:37;;;;;;;;;4.60;4.60;;;;;;;;5069054;28;8862;-90
2023/10/03 08:08:07;;;;;;;;;3.40;3.40;;;;;;;;5073232;28;9589;-88
2023/10/03 08:10:35;;;;;;;;;3.80;2.80;;;;;;;;5069318;28;8892;-85
2023/10/03 08:13:03;;;;;;;;;3.00;3.00;;;;;;;;5069896;28;8846;-85
2023/10/03 08:15:32;;;;;;;;;4.20;4.20;;;;;;;;5068808;28;8862;-83
2023/10/03 08:18:00;;;;;;;;;4.00;4.00;;;;;;;;5068292;28;8874;-75
2023/10/03 08:20:29;;;;;;;;;4.00;3.25;;;;;;;;5067441;28;8931;-79
2023/10/03 08:22:57;;;;;;;;;5.25;4.25;;;;;;;;5068925;28;8865;-76
2023/10/03 08:25:25;;;;;;;;;6.00;6.00;;;;;;;;5068393;28;8875;-78
2023/10/03 08:27:55;;;;;;;;;3.60;3.60;;;;;;;;5068750;28;8863;-81
2023/10/03 08:30:28;;;;;;;;;5.60;5.40;;;;;;;;5067900;28;8843;-81
2023/10/03 08:32:56;;;;;;;;;5.00;4.20;;;;;;;;5068093;28;8863;-74
2023/10/03 08:35:34;;;;;;;;;5.60;5.60;;;;;;;;5067417;28;8881;-81
2023/10/03 08:38:05;;;;;;;;;4.20;3.20;;;;;;;;5067990;28;8858;-72
2023/10/03 08:40:36;;;;;;;;;3.80;3.80;;;;;;;;5057630;28;8855;-73
2023/10/03 08:43:04;;;;;;;;;5.00;5.00;;;;;;;;5068634;28;8980;-73
2023/10/03 08:45:35;;;;;;;;;5.40;3.60;;;;;;;;5070673;28;9746;-80
2023/10/03 08:48:06;;;;;;;;;5.00;4.00;;;;;;;;5070699;28;8861;-77
2023/10/03 08:50:40;;;;;;;;;4.00;4.00;;;;;;;;5071535;28;8838;-76
2023/10/03 08:53:15;;;;;;;;;4.00;4.00;;;;;;;;5070653;28;8851;-78
2023/10/03 08:55:48;;;;;;;;;4.20;4.20;;;;;;;;5070877;28;8897;-76
2023/10/03 08:58:28;;;;;;;;;5.80;4.40;;;;;;;;5062489;28;8980;-76
2023/10/03 09:01:17;;;;;;;;;2.80;2.80;;;;;;;;5065368;28;8787;-79
2023/10/03 09:03:47;;;;;;;;;2.75;2.75;;;;;;;;5061803;28;8838;-83
2023/10/03 09:06:19;;;;;;;;;2.60;2.60;;;;;;;;5066051;28;8869;-82
2023/10/03 09:08:48;;;;;;;;;4.60;3.00;;;;;;;;5064965;28;8855;-76
2023/10/03 09:11:15;;;;;;;;;2.00;2.00;;;;;;;;5056861;28;8864;-82
2023/10/03 09:13:46;;;;;;;;;2.00;2.00;;;;;;;;5067528;28;8827;-83
2023/10/03 09:16:16;;;;;;;;;2.00;2.00;;;;;;;;5069355;28;8923;-85
2023/10/03 09:18:43;;;;;;;;;2.80;1.00;;;;;;;;5068149;28;9694;-89
2023/10/03 09:21:15;;;;;;;;;1.00;1.00;;;;;;;;5069247;28;8909;-86
2023/10/03 09:24:01;;;;;;;;;1.20;1.20;;;;;;;;5069834;28;8856;-76
2023/10/03 09:26:28;;;;;;;;;0.25;0.25;;;;;;;;5068694;28;8870;-84
2023/10/03 09:28:58;;;;;;;;;2.75;1.25;;;;;;;;5068355;28;8958;-88
2023/10/03 09:31:26;;;;;;;;;1.75;1.25;;;;;;;;5069215;28;8775;-88
2023/10/03 09:33:57;;;;;;;;;2.00;1.75;;;;;;;;5073518;28;8827;-86
2023/10/03 09:36:28;;;;;;;;;0.80;0.80;;;;;;;;5073639;28;8865;-88
2023/10/03 09:38:56;;;;;;;;;3.00;1.60;;;;;;;;5072245;28;9676;-88
2023/10/03 09:41:23;;;;;;;;;2.25;0.25;;;;;;;;5069008;28;8847;-86
2023/10/03 09:43:53;;;;;;;;;1.80;1.80;;;;;;;;5068045;28;8997;-89
2023/10/03 09:46:26;;;;;;;;;2.25;2.25;;;;;;;;5067811;28;8959;-86
2023/10/03 09:48:56;;;;;;;;;3.50;1.75;;;;;;;;5067247;28;8937;-76
2023/10/03 09:51:45;;;;;;;;;2.20;0.60;;;;;;;;5067881;28;8888;-88
2023/10/03 09:54:23;;;;;;;;;1.80;1.80;;;;;;;;5067767;28;8850;-76
2023/10/03 09:56:51;;;;;;;;;1.40;0.00;;;;;;;;5068182;28;9726;-83
2023/10/03 09:59:20;;;;;;;;;3.20;2.00;;;;;;;;5067767;28;8959;-86
2023/10/03 10:01:48;;;;;;;;;1.80;1.80;;;;;;;;5067198;28;9085;-82
2023/10/03 10:04:19;;;;;;;;;2.60;1.80;;;;;;;;5067201;28;9653;-84
2023/10/03 10:06:51;;;;;;;;;1.40;1.40;;;;;;;;5070470;28;8874;-80
2023/10/03 10:09:27;;;;;;;;;1.00;1.00;;;;;;;;5067454;28;8976;-89
2023/10/03 10:12:18;;;;;;;;;3.00;3.00;;;;;;;;5072011;28;8874;-73
2023/10/03 10:15:13;;;;;;;;;0.80;0.80;;;;;;;;5058486;28;8892;-83
2023/10/03 10:17:58;;;;;;;;;3.00;3.00;;;;;;;;5066006;28;8870;-83
2023/10/03 10:20:32;;;;;;;;;2.00;2.00;;;;;;;;5067698;28;8859;-74
2023/10/03 10:23:20;;;;;;;;;2.40;2.40;;;;;;;;5067989;28;8862;-78
2023/10/03 10:25:51;;;;;;;;;3.80;2.00;;;;;;;;5070442;28;8932;-74
2023/10/03 10:28:26;;;;;;;;;1.80;1.80;;;;;;;;5073360;28;8920;-79
2023/10/03 10:31:21;;;;;;;;;2.00;2.00;;;;;;;;5062809;28;8848;-74
2023/10/03 10:33:57;;;;;;;;;4.20;3.20;;;;;;;;5073745;28;8843;-75
2023/10/03 10:37:04;;;;;;;;;3.80;3.80;;;;;;;;5073486;28;8854;-76
2023/10/03 10:40:12;;;;;;;;;2.40;2.40;;;;;;;;5067783;28;8874;-80
2023/10/03 10:42:59;;;;;;;;;3.80;3.80;;;;;;;;5077195;28;8884;-89
2023/10/03 10:45:27;;;;;;;;;3.20;2.60;;;;;;;;5079252;28;8873;-88
2023/10/03 10:47:55;;;;;;;;;1.80;0.80;;;;;;;;5076413;28;8843;-90
2023/10/03 10:50:25;;;;;;;;;1.60;1.60;;;;;;;;5073467;28;8877;-92
2023/10/03 10:52:56;;;;;;;;;3.00;3.00;;;;;;;;5070662;28;8928;-88
2023/10/03 10:55:23;;;;;;;;;3.80;3.80;;;;;;;;5071429;28;8867;-89
2023/10/03 10:58:07;;;;;;;;;2.20;2.20;;;;;;;;5071954;28;8993;-87
2023/10/03 11:00:34;;;;;;;;;3.20;3.20;;;;;;;;5074673;28;9319;-90
2023/10/03 11:03:04;;;;;;;;;2.60;2.60;;;;;;;;5071210;28;8834;-91
2023/10/03 11:05:48;;;;;;;;;2.40;2.40;;;;;;;;5069470;28;8887;-86
2023/10/03 11:08:17;;;;;;;;;2.00;2.00;;;;;;;;5070692;28;8846;-74
2023/10/03 11:10:55;;;;;;;;;3.00;3.00;;;;;;;;5070241;28;8846;-73
2023/10/03 11:13:22;;;;;;;;;5.40;2.20;;;;;;;;5071144;28;8875;-88
2023/10/03 11:15:50;;;;;;;;;2.80;2.80;;;;;;;;5071773;28;8870;-91
2023/10/03 11:18:18;;;;;;;;;2.20;2.20;;;;;;;;5077090;28;9028;-76
2023/10/03 11:20:47;;;;;;;;;1.80;1.80;;;;;;;;5076976;28;8990;-73
2023/10/03 11:23:20;;;;;;;;;3.00;1.60;;;;;;;;5076226;28;8842;-88
2023/10/03 11:25:54;;;;;;;;;1.20;1.20;;;;;;;;5070761;28;8854;-87
2023/10/03 11:28:22;;;;;;;;;0.80;0.00;;;;;;;;5071038;28;8871;-85
2023/10/03 11:31:03;;;;;;;;;0.20;0.20;;;;;;;;5070635;28;8782;-84
2023/10/03 11:33:31;;;;;;;;;1.00;1.00;;;;;;;;5070420;28;8974;-81
2023/10/03 11:35:58;;;;;;;;;1.00;0.00;;;;;;;;5069856;28;8862;-77
2023/10/03 11:38:27;;;;;;;;;1.00;0.80;;;;;;;;5069481;28;8962;-81
2023/10/03 11:40:54;;;;;;;;;0.00;0.00;;;;;;;;5069476;28;8856;-83
2023/10/03 11:43:23;;;;;;;;;0.00;0.00;;;;;;;;5068864;28;8866;-80
2023/10/03 11:45:56;;;;;;;;;0.20;0.20;;;;;;;;5069626;28;8851;-85
2023/10/03 11:48:23;;;;;;;;;0.80;0.80;;;;;;;;5068327;28;8839;-83
2023/10/03 11:50:51;;;;;;;;;0.80;0.80;;;;;;;;5070241;28;8876;-78
2023/10/03 11:53:18;;;;;;;;;0.20;0.00;;;;;;;;5072270;28;8831;-77
2023/10/03 11:55:47;;;;;;;;;1.00;1.00;;;;;;;;5071754;28;9622;-75
2023/10/03 11:58:15;;;;;;;;;1.40;0.60;;;;;;;;5070456;28;8847;-78
2023/10/03 12:00:44;;;;;;;;;0.20;0.20;;;;;;;;5068382;28;8913;-76
2023/10/03 12:03:11;;;;;;;;;1.20;1.20;;;;;;;;5069790;28;8867;-76
2023/10/03 12:05:42;;;;;;;;;0.60;0.60;;;;;;;;5070354;28;8851;-74
2023/10/03 12:08:10;;;;;;;;;1.00;1.00;;;;;;;;5071447;28;8912;-76
2023/10/03 12:10:40;;;;;;;;;1.20;1.20;;;;;;;;5071276;28;8878;-72
2023/10/03 12:13:10;;;;;;;;;1.80;0.60;;;;;;;;5070905;28;8874;-74
2023/10/03 12:15:41;;;;;;;;;1.00;0.80;;;;;;;;5071224;28;8858;-76
2023/10/03 12:18:09;;;;;;;;;0.00;0.00;;;;;;;;5072249;28;8858;-76
2023/10/03 12:20:38;;;;;;;;;0.80;0.80;;;;;;;;5071400;28;8858;-77
2023/10/03 12:23:05;;;;;;;;;0.00;0.00;;;;;;;;5069052;28;8866;-78
2023/10/03 12:25:32;;;;;;;;;0.20;0.20;;;;;;;;5071830;28;8866;-80
2023/10/03 12:27:59;;;;;;;;;0.80;0.80;;;;;;;;5072313;28;8855;-77
2023/10/03 12:30:28;;;;;;;;;1.00;1.00;;;;;;;;5070989;28;8774;-84
2023/10/03 12:32:55;;;;;;;;;0.00;0.00;;;;;;;;5068573;28;8859;-81
2023/10/03 12:35:23;;;;;;;;;0.20;0.20;;;;;;;;5068149;28;8997;-81
2023/10/03 12:37:51;;;;;;;;;0.00;0.00;;;;;;;;5068002;28;9649;-83
2023/10/03 12:40:22;;;;;;;;;0.20;0.20;;;;;;;;5068352;28;8908;-83
2023/10/03 12:42:51;;;;;;;;;1.00;1.00;;;;;;;;5067023;28;8839;-86
2023/10/03 12:45:20;;;;;;;;;0.00;0.00;;;;;;;;5068251;28;8839;-81
2023/10/03 12:47:51;;;;;;;;;1.00;1.00;;;;;;;;5065444;28;8862;-82
2023/10/03 12:50:21;;;;;;;;;0.00;0.00;;;;;;;;5068836;28;8847;-81
2023/10/03 12:52:48;;;;;;;;;0.20;0.20;;;;;;;;5067725;28;8851;-78
2023/10/03 12:55:16;;;;;;;;;0.00;0.00;;;;;;;;5068376;28;9681;-83
2023/10/03 12:57:48;;;;;;;;;0.40;0.40;;;;;;;;5067998;28;8862;-84
2023/10/03 13:00:19;;;;;;;;;0.00;0.00;;;;;;;;5071764;28;8847;-76
2023/10/03 13:06:09;;;;;;;;;0.20;0.20;;;;;;;;5070881;28;8870;-84
2023/10/03 13:08:39;;;;;;;;;0.00;0.00;;;;;;;;5070040;28;8859;-81
2023/10/03 13:11:06;;;;;;;;;0.00;0.00;;;;;;;;5065933;28;9641;-84
2023/10/03 13:13:36;;;;;;;;;0.00;0.00;;;;;;;;5068216;28;8885;-78
2023/10/03 13:16:03;;;;;;;;;0.60;0.00;;;;;;;;5068130;28;8866;-79
2023/10/03 13:18:32;;;;;;;;;0.20;0.20;;;;;;;;5067976;28;8847;-72
2023/10/03 13:21:13;;;;;;;;;0.40;0.40;;;;;;;;5072460;28;8897;-87
2023/10/03 13:24:01;;;;;;;;;0.00;0.00;;;;;;;;5067845;28;8842;-86
2023/10/03 13:27:04;;;;;;;;;;;;;;;;;;;;;
2023/10/03 13:29:34;;;;;;;;;0.00;0.00;;;;;;;;5057779;28;8850;-87
2023/10/03 13:32:08;;;;;;;;;0.00;0.00;;;;;;;;5067555;28;8821;-76
2023/10/03 13:34:46;;;;;;;;;0.40;0.20;;;;;;;;5069307;28;8846;-74
2023/10/03 13:37:15;;;;;;;;;0.00;0.00;;;;;;;;5069334;28;8850;-74
2023/10/03 13:39:48;;;;;;;;;1.20;0.00;;;;;;;;5071064;28;8843;-77
2023/10/03 13:42:16;;;;;;;;;0.00;0.00;;;;;;;;5069603;28;8919;-81
2023/10/03 13:44:44;;;;;;;;;0.00;0.00;;;;;;;;5069168;28;8851;-74
2023/10/03 13:47:13;;;;;;;;;0.40;0.40;;;;;;;;5068410;28;8997;-78
2023/10/03 13:49:42;;;;;;;;;0.00;0.00;;;;;;;;5069215;28;8847;-77
2023/10/03 13:52:16;;;;;;;;;2.80;0.80;;;;;;;;5070502;28;8867;-73
2023/10/03 13:57:44;;;;;;;;;0.00;0.00;;;;;;;;5053003;28;8869;-75
2023/10/03 14:00:12;;;;;;;;;0.00;0.00;;;;;;;;5070181;28;8912;-85
2023/10/03 14:02:44;;;;;;;;;0.00;0.00;;;;;;;;5069957;28;9703;-73
2023/10/03 14:05:12;;;;;;;;;0.00;0.00;;;;;;;;5070363;28;8871;-76
2023/10/03 14:07:50;;;;;;;;;0.00;0.00;;;;;;;;5070468;28;8870;-81
2023/10/03 14:10:23;;;;;;;;;0.60;0.60;;;;;;;;5071685;28;8902;-81
2023/10/03 14:13:16;;;;;;;;;0.00;0.00;;;;;;;;5070042;28;8881;-79
2023/10/03 14:15:48;;;;;;;;;0.00;0.00;;;;;;;;5071221;28;8857;-79
2023/10/03 14:18:17;;;;;;;;;2.00;0.00;;;;;;;;5071491;28;8881;-82
2023/10/03 14:20:48;;;;;;;;;0.00;0.00;;;;;;;;5070642;28;8827;-81
2023/10/03 14:23:19;;;;;;;;;0.00;0.00;;;;;;;;5071261;28;8876;-79
2023/10/03 14:25:46;;;;;;;;;0.60;0.60;;;;;;;;5070706;28;9093;-79
2023/10/03 14:28:14;;;;;;;;;0.20;0.20;;;;;;;;5070854;28;8855;-84
2023/10/03 14:30:41;;;;;;;;;1.40;0.80;;;;;;;;5068782;28;8917;-80
2023/10/03 14:33:10;;;;;;;;;0.00;0.00;;;;;;;;5070261;28;8854;-76
2023/10/03 14:35:39;;;;;;;;;0.00;0.00;;;;;;;;5069439;28;8882;-84
2023/10/03 14:38:08;;;;;;;;;1.00;0.00;;;;;;;;5066950;28;8870;-80
2023/10/03 14:40:36;;;;;;;;;0.00;0.00;;;;;;;;5070272;28;8871;-83
2023/10/03 14:43:03;;;;;;;;;0.00;0.00;;;;;;;;5071047;28;8819;-82
2023/10/03 14:45:30;;;;;;;;;0.00;0.00;;;;;;;;5072638;28;8835;-83
2023/10/03 14:47:57;;;;;;;;;0.00;0.00;;;;;;;;5070983;28;8898;-81
2023/10/03 14:50:25;;;;;;;;;0.20;0.20;;;;;;;;5071332;28;8839;-78
2023/10/03 14:52:53;;;;;;;;;1.00;0.00;;;;;;;;5070127;28;8854;-80
2023/10/03 14:55:22;;;;;;;;;0.00;0.00;;;;;;;;5070664;28;8879;-75
2023/10/03 14:57:52;;;;;;;;;0.00;0.00;;;;;;;;5069918;28;8842;-74
2023/10/03 15:00:38;;;;;;;;;;;;;;;;;;;;;
2023/10/03 15:03:06;;;;;;;;;1.00;1.00;;;;;;;;5070266;28;8855;-82
2023/10/03 15:05:33;;;;;;;;;0.00;0.00;;;;;;;;5069472;28;9695;-76
2023/10/03 15:08:03;;;;;;;;;0.00;0.00;;;;;;;;5071590;28;8874;-78
2023/10/03 15:10:34;;;;;;;;;0.00;0.00;;;;;;;;5069800;28;8869;-79
2023/10/03 15:13:20;;;;;;;;;0.80;0.80;;;;;;;;5069952;28;8866;-80
2023/10/03 15:15:59;;;;;;;;;1.40;0.20;;;;;;;;5070241;28;8893;-77
2023/10/03 15:18:29;;;;;;;;;0.40;0.40;;;;;;;;5070849;28;8867;-77
2023/10/03 15:20:57;;;;;;;;;0.40;0.40;;;;;;;;5073004;28;8971;-79
2023/10/03 15:23:24;;;;;;;;;1.40;1.40;;;;;;;;5074000;28;8863;-73